New Yoshino — JG5527 — position and weather

sailwx.info

Track history (hours):
 
Tides and Currents Weather Stations Pressure Air Temp Water Temp Dewpoint Dewpoint Depression Visibility Wind Speed Wind Dir Waves Ship Positions

New Yoshino

Last reported at 2016-May-30 17:23 UTC. Time now 2016-May-31 18:00 UTC.
Position N 35°50' E 141°00'.

Length 102 m; draft 6.6 m.

Type: Tanker. MMSI: 431300724.

Date/timePositionNaut miles runAvg speedWind from/ knotsBaromVisibWave heightAir tempDewpointWater temp
2016-May-30 17:23N 35°50' E 141°00'1012.1
2016-May-30 16:33N 35°40' E 140°59'1313.4
2016-May-30 15:33N 35°29' E 140°49'1313.5
2016-May-30 14:34N 35°19' E 140°38'2512.4
2016-May-30 12:31N 35°01' E 140°17'1211.5
2016-May-30 11:28N 34°54' E 140°04'1110.7
2016-May-30 10:25N 34°51' E 139°51'1011.1
2016-May-30 09:33N 34°57' E 139°43'1413.7
2016-May-30 08:33N 35°11' E 139°46'1212.2
2016-May-30 07:33N 35°23' E 139°42'1313.2
2016-May-30 06:33N 35°31' E 139°55'6 5.9
2016-May-30 05:31N 35°31' E 140°02'0 0.0
2016-May-30 04:31N 35°31' E 140°03'0 0.0
2016-May-30 03:31N 35°31' E 140°02'0 0.0
2016-May-30 02:22N 35°31' E 140°02'0 0.0
2016-May-30 01:31N 35°31' E 140°02'0 0.0
2016-May-30 00:28N 35°31' E 140°02'0 0.1
2016-May-29 23:31N 35°31' E 140°03'0 0.0
2016-May-29 22:28N 35°31' E 140°02'2 1.9
2016-May-29 21:32N 35°31' E 140°00'1 0.9
2016-May-29 20:31N 35°31' E 139°59'0 0.0
2016-May-29 19:31N 35°31' E 139°59'0 0.0
2016-May-29 18:31N 35°31' E 139°59'0 0.0
2016-May-29 17:31N 35°31' E 139°59'8 8.0
2016-May-29 16:33N 35°28' E 139°51'1111.4
2016-May-29 15:33N 35°17' E 139°45'1212.1
2016-May-29 14:33N 35°05' E 139°42'1514.6
2016-May-29 13:33N 34°56' E 139°29'32 1.2
2016-May-28 10:06N 34°56' E 140°07'2710.6
2016-May-28 07:33N 35°13' E 140°32'1312.2
2016-May-28 06:28N 35°24' E 140°42'34 9.9
2016-May-28 03:04N 35°58' E 140°45'3 6.6
2016-May-28 02:33N 35°55' E 140°42'1 0.4
2016-May-27 23:27N 35°55' E 140°41'0 0.0
2016-May-27 22:31N 35°55' E 140°41'2 2.4
2016-May-27 21:33N 35°56' E 140°42'3 3.1
2016-May-27 20:28N 35°60' E 140°43'0 0.0
2016-May-27 19:28N 35°60' E 140°43'0 0.0
2016-May-27 18:25N 35°60' E 140°43'0 0.0
2016-May-27 17:31N 35°60' E 140°43'0 0.0
2016-May-27 16:31N 35°60' E 140°43'0 0.0
2016-May-27 15:28N 35°60' E 140°43'0 0.0
2016-May-27 14:18N 35°60' E 140°43'0 0.0
2016-May-27 12:24N 35°60' E 140°43'2 1.1
2016-May-27 10:33N 36°02' E 140°43'2813.8
2016-May-27 08:33N 36°28' E 140°55'  
2016-May-23 23:26N 36°32' E 141°11'1212.9
2016-May-23 22:28N 36°19' E 141°08'1212.7
2016-May-23 21:32N 36°08' E 141°05'1312.9
2016-May-23 20:31N 35°55' E 141°03'1212.9
2016-May-23 19:33N 35°42' E 141°00'1312.6
2016-May-23 18:33N 35°32' E 140°52'1313.1
2016-May-23 17:33N 35°22' E 140°42'1313.3
2016-May-23 16:33N 35°12' E 140°32'1614.5
2016-May-23 15:26N 35°01' E 140°17'1313.9
2016-May-23 14:30N 34°54' E 140°03'1212.2
2016-May-23 13:33N 34°51' E 139°50'1211.7
2016-May-23 12:33N 35°01' E 139°43'1313.3
2016-May-23 11:33N 35°14' E 139°47'1211.5
2016-May-23 10:33N 35°25' E 139°44'1212.1
2016-May-23 09:33N 35°31' E 139°57'4 4.0
2016-May-23 08:32N 35°31' E 140°02'0 0.0
2016-May-23 07:29N 35°31' E 140°02'0 0.0
2016-May-23 06:11N 35°31' E 140°02'0 0.0
2016-May-23 05:29N 35°31' E 140°02'0 0.0
2016-May-23 04:29N 35°31' E 140°02'0 0.0
2016-May-23 03:23N 35°31' E 140°02'0 0.0
2016-May-23 02:23N 35°31' E 140°02'0 0.0
2016-May-23 01:29N 35°31' E 140°02'4 4.1
2016-May-23 00:34N 35°31' E 139°58'1312.9
2016-May-22 23:34N 35°23' E 139°45'1111.4
2016-May-22 22:33N 35°11' E 139°47'1414.0
2016-May-22 21:33N 34°57' E 139°43'1311.2
2016-May-22 20:26N 34°52' E 139°57'1213.1
2016-May-22 19:32N 34°58' E 140°10'1312.9
2016-May-22 18:31N 35°05' E 140°24'1212.0
2016-May-22 17:33N 35°13' E 140°33'1313.5
2016-May-22 16:33N 35°23' E 140°44'1413.5
2016-May-22 15:33N 35°33' E 140°55'1414.1
2016-May-22 14:33N 35°47' E 141°01'1414.3
2016-May-22 13:33N 36°01' E 141°01'1413.9
2016-May-22 12:33N 36°15' E 141°01'1414.0
2016-May-22 11:33N 36°29' E 141°03'1414.0
2016-May-22 10:33N 36°43' E 141°05'1313.3
2016-May-22 09:33N 36°56' E 141°06'1413.9
2016-May-22 08:34N 37°10' E 141°08'97 2.9
2016-May-20 23:16N 35°33' E 140°51'912.2
2016-May-20 22:33N 35°26' E 140°45'1712.4
2016-May-20 21:11N 35°12' E 140°33'2213.4
2016-May-20 19:33N 34°58' E 140°13'1412.7
2016-May-20 18:29N 34°52' E 139°58'1111.6
2016-May-20 17:33N 34°53' E 139°45'  
Track history (hours):
 
Tides and Currents Weather Stations Pressure Air Temp Water Temp Dewpoint Dewpoint Depression Visibility Wind Speed Wind Dir Waves Ship Positions

New Yoshino

Last reported at 2016-May-30 17:23 UTC. Time now 2016-May-31 18:00 UTC.
Position N 35°50' E 141°00'.

Length 102 m; draft 6.6 m.

Type: Tanker. MMSI: 431300724.

Date/timePositionNaut miles runAvg speedWind from/ knotsBaromVisibWave heightAir tempDewpointWater temp
2016-May-30 17:23N 35°50' E 141°00'1012.1
2016-May-30 16:33N 35°40' E 140°59'1313.4
2016-May-30 15:33N 35°29' E 140°49'1313.5
2016-May-30 14:34N 35°19' E 140°38'2512.4
2016-May-30 12:31N 35°01' E 140°17'1211.5
2016-May-30 11:28N 34°54' E 140°04'1110.7
2016-May-30 10:25N 34°51' E 139°51'1011.1
2016-May-30 09:33N 34°57' E 139°43'1413.7
2016-May-30 08:33N 35°11' E 139°46'1212.2
2016-May-30 07:33N 35°23' E 139°42'1313.2
2016-May-30 06:33N 35°31' E 139°55'6 5.9
2016-May-30 05:31N 35°31' E 140°02'0 0.0
2016-May-30 04:31N 35°31' E 140°03'0 0.0
2016-May-30 03:31N 35°31' E 140°02'0 0.0
2016-May-30 02:22N 35°31' E 140°02'0 0.0
2016-May-30 01:31N 35°31' E 140°02'0 0.0
2016-May-30 00:28N 35°31' E 140°02'0 0.1
2016-May-29 23:31N 35°31' E 140°03'0 0.0
2016-May-29 22:28N 35°31' E 140°02'2 1.9
2016-May-29 21:32N 35°31' E 140°00'1 0.9
2016-May-29 20:31N 35°31' E 139°59'0 0.0
2016-May-29 19:31N 35°31' E 139°59'0 0.0
2016-May-29 18:31N 35°31' E 139°59'0 0.0
2016-May-29 17:31N 35°31' E 139°59'8 8.0
2016-May-29 16:33N 35°28' E 139°51'1111.4
2016-May-29 15:33N 35°17' E 139°45'1212.1
2016-May-29 14:33N 35°05' E 139°42'1514.6
2016-May-29 13:33N 34°56' E 139°29'32 1.2
2016-May-28 10:06N 34°56' E 140°07'2710.6
2016-May-28 07:33N 35°13' E 140°32'1312.2
2016-May-28 06:28N 35°24' E 140°42'34 9.9
2016-May-28 03:04N 35°58' E 140°45'3 6.6
2016-May-28 02:33N 35°55' E 140°42'1 0.4
2016-May-27 23:27N 35°55' E 140°41'0 0.0
2016-May-27 22:31N 35°55' E 140°41'2 2.4
2016-May-27 21:33N 35°56' E 140°42'3 3.1
2016-May-27 20:28N 35°60' E 140°43'0 0.0
2016-May-27 19:28N 35°60' E 140°43'0 0.0
2016-May-27 18:25N 35°60' E 140°43'0 0.0
2016-May-27 17:31N 35°60' E 140°43'0 0.0
2016-May-27 16:31N 35°60' E 140°43'0 0.0
2016-May-27 15:28N 35°60' E 140°43'0 0.0
2016-May-27 14:18N 35°60' E 140°43'0 0.0
2016-May-27 12:24N 35°60' E 140°43'2 1.1
2016-May-27 10:33N 36°02' E 140°43'2813.8
2016-May-27 08:33N 36°28' E 140°55'  
2016-May-23 23:26N 36°32' E 141°11'1212.9
2016-May-23 22:28N 36°19' E 141°08'1212.7
2016-May-23 21:32N 36°08' E 141°05'1312.9
2016-May-23 20:31N 35°55' E 141°03'1212.9
2016-May-23 19:33N 35°42' E 141°00'1312.6
2016-May-23 18:33N 35°32' E 140°52'1313.1
2016-May-23 17:33N 35°22' E 140°42'1313.3
2016-May-23 16:33N 35°12' E 140°32'1614.5
2016-May-23 15:26N 35°01' E 140°17'1313.9
2016-May-23 14:30N 34°54' E 140°03'1212.2
2016-May-23 13:33N 34°51' E 139°50'1211.7
2016-May-23 12:33N 35°01' E 139°43'1313.3
2016-May-23 11:33N 35°14' E 139°47'1211.5
2016-May-23 10:33N 35°25' E 139°44'1212.1
2016-May-23 09:33N 35°31' E 139°57'4 4.0
2016-May-23 08:32N 35°31' E 140°02'0 0.0
2016-May-23 07:29N 35°31' E 140°02'0 0.0
2016-May-23 06:11N 35°31' E 140°02'0 0.0
2016-May-23 05:29N 35°31' E 140°02'0 0.0
2016-May-23 04:29N 35°31' E 140°02'0 0.0
2016-May-23 03:23N 35°31' E 140°02'0 0.0
2016-May-23 02:23N 35°31' E 140°02'0 0.0
2016-May-23 01:29N 35°31' E 140°02'4 4.1
2016-May-23 00:34N 35°31' E 139°58'1312.9
2016-May-22 23:34N 35°23' E 139°45'1111.4
2016-May-22 22:33N 35°11' E 139°47'1414.0
2016-May-22 21:33N 34°57' E 139°43'1311.2
2016-May-22 20:26N 34°52' E 139°57'1213.1
2016-May-22 19:32N 34°58' E 140°10'1312.9
2016-May-22 18:31N 35°05' E 140°24'1212.0
2016-May-22 17:33N 35°13' E 140°33'1313.5
2016-May-22 16:33N 35°23' E 140°44'1413.5
2016-May-22 15:33N 35°33' E 140°55'1414.1
2016-May-22 14:33N 35°47' E 141°01'1414.3
2016-May-22 13:33N 36°01' E 141°01'1413.9
2016-May-22 12:33N 36°15' E 141°01'1414.0
2016-May-22 11:33N 36°29' E 141°03'1414.0
2016-May-22 10:33N 36°43' E 141°05'1313.3
2016-May-22 09:33N 36°56' E 141°06'1413.9
2016-May-22 08:34N 37°10' E 141°08'97 2.9
2016-May-20 23:16N 35°33' E 140°51'912.2
2016-May-20 22:33N 35°26' E 140°45'1712.4
2016-May-20 21:11N 35°12' E 140°33'2213.4
2016-May-20 19:33N 34°58' E 140°13'1412.7
2016-May-20 18:29N 34°52' E 139°58'1111.6
2016-May-20 17:33N 34°53' E 139°45'  

Dump ship's entire track history